Terminal Aerodrome Forecast
Issued by NWS Nashville, TN

Home | Current Version | Previous Version | Text Only | Print | Product List | Glossary On
Versions: 1 2 3 4 5 6 7 8 9 10 11 12 13 14 15 16 17
196
FTUS44 KOHX 261121
TAFCSV
TAF
KCSV 261121Z 2612/2712 VRB03KT P6SM SCT030 SCT250
      TEMPO 2612/2613 5SM BR=

USA.gov is the U.S. government's official web portal to all federal, state and local government web resources and services.